sensor_id;sensor_type;location;lat;lon;timestamp;temperature;humidity
38223;DHT22;24024;51.186;6.458;2023-08-06T00:01:39;20.20;65.20
38223;DHT22;24024;51.186;6.458;2023-08-06T00:04:06;20.10;65.30
38223;DHT22;24024;51.186;6.458;2023-08-06T00:06:33;20.00;65.60
38223;DHT22;24024;51.186;6.458;2023-08-06T00:09:02;20.10;65.60
38223;DHT22;24024;51.186;6.458;2023-08-06T00:11:29;20.10;65.50
38223;DHT22;24024;51.186;6.458;2023-08-06T00:13:58;20.00;65.50
38223;DHT22;24024;51.186;6.458;2023-08-06T00:16:27;20.20;65.30
38223;DHT22;24024;51.186;6.458;2023-08-06T00:18:54;20.20;65.10
38223;DHT22;24024;51.186;6.458;2023-08-06T00:21:23;20.40;64.90
38223;DHT22;24024;51.186;6.458;2023-08-06T00:23:52;20.30;64.70
38223;DHT22;24024;51.186;6.458;2023-08-06T00:26:19;20.40;64.60
38223;DHT22;24024;51.186;6.458;2023-08-06T00:28:48;20.50;64.40
38223;DHT22;24024;51.186;6.458;2023-08-06T00:31:18;20.50;64.10
38223;DHT22;24024;51.186;6.458;2023-08-06T00:33:45;20.60;64.00
38223;DHT22;24024;51.186;6.458;2023-08-06T00:36:11;20.60;63.40
38223;DHT22;24024;51.186;6.458;2023-08-06T00:38:40;20.60;63.70
38223;DHT22;24024;51.186;6.458;2023-08-06T00:41:07;20.50;63.90
38223;DHT22;24024;51.186;6.458;2023-08-06T00:43:34;20.60;64.10
38223;DHT22;24024;51.186;6.458;2023-08-06T00:46:03;20.50;64.20
38223;DHT22;24024;51.186;6.458;2023-08-06T00:48:31;20.40;64.50
38223;DHT22;24024;51.186;6.458;2023-08-06T00:51:01;20.30;64.80
38223;DHT22;24024;51.186;6.458;2023-08-06T00:53:28;20.30;64.60
38223;DHT22;24024;51.186;6.458;2023-08-06T00:55:55;20.10;65.10
38223;DHT22;24024;51.186;6.458;2023-08-06T00:58:22;20.10;65.20
38223;DHT22;24024;51.186;6.458;2023-08-06T01:00:49;20.20;65.20
38223;DHT22;24024;51.186;6.458;2023-08-06T01:03:16;20.30;65.00
38223;DHT22;24024;51.186;6.458;2023-08-06T01:05:43;20.40;64.90
38223;DHT22;24024;51.186;6.458;2023-08-06T01:13:46;20.50;64.90
38223;DHT22;24024;51.186;6.458;2023-08-06T01:16:21;20.40;64.80
38223;DHT22;24024;51.186;6.458;2023-08-06T01:18:48;20.50;64.70
38223;DHT22;24024;51.186;6.458;2023-08-06T01:21:18;20.40;64.90
38223;DHT22;24024;51.186;6.458;2023-08-06T01:23:46;20.40;64.90
38223;DHT22;24024;51.186;6.458;2023-08-06T01:31:37;19.90;66.30
38223;DHT22;24024;51.186;6.458;2023-08-06T01:34:17;19.80;66.70
38223;DHT22;24024;51.186;6.458;2023-08-06T01:36:44;20.00;66.30
38223;DHT22;24024;51.186;6.458;2023-08-06T01:39:14;19.90;66.40
38223;DHT22;24024;51.186;6.458;2023-08-06T01:41:45;19.90;66.80
38223;DHT22;24024;51.186;6.458;2023-08-06T01:44:12;20.10;66.20
38223;DHT22;24024;51.186;6.458;2023-08-06T01:46:39;20.10;66.00
38223;DHT22;24024;51.186;6.458;2023-08-06T01:49:08;20.10;66.30
38223;DHT22;24024;51.186;6.458;2023-08-06T01:51:37;20.00;66.60
38223;DHT22;24024;51.186;6.458;2023-08-06T01:54:04;20.10;66.40
38223;DHT22;24024;51.186;6.458;2023-08-06T01:56:31;20.20;66.00
38223;DHT22;24024;51.186;6.458;2023-08-06T01:59:00;20.30;65.70
38223;DHT22;24024;51.186;6.458;2023-08-06T02:01:33;20.30;65.60
38223;DHT22;24024;51.186;6.458;2023-08-06T02:03:59;20.10;66.20
38223;DHT22;24024;51.186;6.458;2023-08-06T02:06:26;20.00;66.70
38223;DHT22;24024;51.186;6.458;2023-08-06T02:08:53;19.90;66.80
38223;DHT22;24024;51.186;6.458;2023-08-06T02:11:22;20.00;67.00
38223;DHT22;24024;51.186;6.458;2023-08-06T02:13:49;20.10;66.60
38223;DHT22;24024;51.186;6.458;2023-08-06T02:16:15;19.90;67.20
38223;DHT22;24024;51.186;6.458;2023-08-06T02:18:42;19.80;67.40
38223;DHT22;24024;51.186;6.458;2023-08-06T02:21:09;20.00;67.00
38223;DHT22;24024;51.186;6.458;2023-08-06T02:23:38;20.10;66.70
38223;DHT22;24024;51.186;6.458;2023-08-06T02:26:05;20.10;66.50
38223;DHT22;24024;51.186;6.458;2023-08-06T02:28:34;20.20;66.30
38223;DHT22;24024;51.186;6.458;2023-08-06T02:31:03;20.30;66.00
38223;DHT22;24024;51.186;6.458;2023-08-06T02:33:33;20.40;65.90
38223;DHT22;24024;51.186;6.458;2023-08-06T02:36:01;20.30;66.10
38223;DHT22;24024;51.186;6.458;2023-08-06T02:38:31;20.40;66.00
38223;DHT22;24024;51.186;6.458;2023-08-06T02:41:02;20.30;66.00
38223;DHT22;24024;51.186;6.458;2023-08-06T02:43:31;20.20;66.60
38223;DHT22;24024;51.186;6.458;2023-08-06T02:45:59;20.20;66.70
38223;DHT22;24024;51.186;6.458;2023-08-06T02:48:26;20.20;66.70
38223;DHT22;24024;51.186;6.458;2023-08-06T02:50:57;20.30;66.50
38223;DHT22;24024;51.186;6.458;2023-08-06T02:53:25;20.30;66.60
38223;DHT22;24024;51.186;6.458;2023-08-06T02:55:52;20.40;66.50
38223;DHT22;24024;51.186;6.458;2023-08-06T02:58:19;20.30;66.50
38223;DHT22;24024;51.186;6.458;2023-08-06T03:01:04;20.30;66.60
38223;DHT22;24024;51.186;6.458;2023-08-06T03:03:32;20.30;66.30
38223;DHT22;24024;51.186;6.458;2023-08-06T03:06:04;20.40;66.20
38223;DHT22;24024;51.186;6.458;2023-08-06T03:08:31;20.50;66.00
38223;DHT22;24024;51.186;6.458;2023-08-06T03:10:58;20.50;65.80
38223;DHT22;24024;51.186;6.458;2023-08-06T03:13:25;20.60;65.60
38223;DHT22;24024;51.186;6.458;2023-08-06T03:15:59;20.60;65.30
38223;DHT22;24024;51.186;6.458;2023-08-06T03:18:26;20.70;65.00
38223;DHT22;24024;51.186;6.458;2023-08-06T03:20:53;20.70;65.20
38223;DHT22;24024;51.186;6.458;2023-08-06T03:23:22;20.60;65.30
38223;DHT22;24024;51.186;6.458;2023-08-06T03:25:49;20.60;65.50
38223;DHT22;24024;51.186;6.458;2023-08-06T03:28:18;20.60;65.50
38223;DHT22;24024;51.186;6.458;2023-08-06T03:30:45;20.60;65.50
38223;DHT22;24024;51.186;6.458;2023-08-06T03:33:14;20.60;65.50
38223;DHT22;24024;51.186;6.458;2023-08-06T03:35:43;20.50;65.60
38223;DHT22;24024;51.186;6.458;2023-08-06T03:38:12;20.50;65.70
38223;DHT22;24024;51.186;6.458;2023-08-06T03:40:39;20.50;65.70
38223;DHT22;24024;51.186;6.458;2023-08-06T03:43:05;20.50;65.70
38223;DHT22;24024;51.186;6.458;2023-08-06T03:45:34;20.50;65.70
38223;DHT22;24024;51.186;6.458;2023-08-06T03:48:03;20.50;65.60
38223;DHT22;24024;51.186;6.458;2023-08-06T03:50:32;20.50;65.80
38223;DHT22;24024;51.186;6.458;2023-08-06T03:52:59;20.50;65.70
38223;DHT22;24024;51.186;6.458;2023-08-06T03:55:26;20.50;65.60
38223;DHT22;24024;51.186;6.458;2023-08-06T03:57:53;20.50;65.90
38223;DHT22;24024;51.186;6.458;2023-08-06T04:00:22;20.50;66.00
38223;DHT22;24024;51.186;6.458;2023-08-06T04:02:49;20.50;65.90
38223;DHT22;24024;51.186;6.458;2023-08-06T04:05:16;20.50;65.50
38223;DHT22;24024;51.186;6.458;2023-08-06T04:07:45;20.50;65.50
38223;DHT22;24024;51.186;6.458;2023-08-06T04:10:12;20.50;65.40
38223;DHT22;24024;51.186;6.458;2023-08-06T04:12:39;20.50;65.60
38223;DHT22;24024;51.186;6.458;2023-08-06T04:15:06;20.50;65.80
38223;DHT22;24024;51.186;6.458;2023-08-06T04:20:02;20.20;66.60
38223;DHT22;24024;51.186;6.458;2023-08-06T04:22:29;20.20;66.60
38223;DHT22;24024;51.186;6.458;2023-08-06T04:24:56;20.20;66.80
38223;DHT22;24024;51.186;6.458;2023-08-06T04:27:25;20.10;67.10
38223;DHT22;24024;51.186;6.458;2023-08-06T04:29:52;20.20;66.90
38223;DHT22;24024;51.186;6.458;2023-08-06T04:32:19;20.30;66.60
38223;DHT22;24024;51.186;6.458;2023-08-06T04:34:46;20.30;66.40
38223;DHT22;24024;51.186;6.458;2023-08-06T04:37:14;20.30;66.40
38223;DHT22;24024;51.186;6.458;2023-08-06T04:39:41;20.20;66.80
38223;DHT22;24024;51.186;6.458;2023-08-06T04:42:08;20.10;67.20
38223;DHT22;24024;51.186;6.458;2023-08-06T04:44:34;20.10;67.40
38223;DHT22;24024;51.186;6.458;2023-08-06T04:47:04;20.10;67.30
38223;DHT22;24024;51.186;6.458;2023-08-06T04:49:33;20.10;67.30
38223;DHT22;24024;51.186;6.458;2023-08-06T04:52:02;20.10;67.20
38223;DHT22;24024;51.186;6.458;2023-08-06T04:54:31;20.10;67.30
38223;DHT22;24024;51.186;6.458;2023-08-06T04:57:00;20.10;67.60
38223;DHT22;24024;51.186;6.458;2023-08-06T04:59:27;20.10;67.50
38223;DHT22;24024;51.186;6.458;2023-08-06T05:01:54;20.10;67.50
38223;DHT22;24024;51.186;6.458;2023-08-06T05:04:23;20.10;67.60
38223;DHT22;24024;51.186;6.458;2023-08-06T05:06:49;20.10;67.70
38223;DHT22;24024;51.186;6.458;2023-08-06T05:09:16;20.00;68.40
38223;DHT22;24024;51.186;6.458;2023-08-06T05:11:49;20.00;68.40
38223;DHT22;24024;51.186;6.458;2023-08-06T05:14:18;20.00;68.60
38223;DHT22;24024;51.186;6.458;2023-08-06T05:16:45;19.70;69.20
38223;DHT22;24024;51.186;6.458;2023-08-06T05:19:14;19.40;70.20
38223;DHT22;24024;51.186;6.458;2023-08-06T05:21:40;19.50;70.00
38223;DHT22;24024;51.186;6.458;2023-08-06T05:24:10;19.50;69.90
38223;DHT22;24024;51.186;6.458;2023-08-06T05:26:36;19.60;69.80
38223;DHT22;24024;51.186;6.458;2023-08-06T05:29:05;19.80;69.10
38223;DHT22;24024;51.186;6.458;2023-08-06T05:31:32;19.60;69.60
38223;DHT22;24024;51.186;6.458;2023-08-06T05:33:59;19.60;69.60
38223;DHT22;24024;51.186;6.458;2023-08-06T05:36:26;19.60;69.40
38223;DHT22;24024;51.186;6.458;2023-08-06T05:38:57;19.50;70.20
38223;DHT22;24024;51.186;6.458;2023-08-06T05:41:27;19.20;70.70
38223;DHT22;24024;51.186;6.458;2023-08-06T05:43:53;19.30;70.70
38223;DHT22;24024;51.186;6.458;2023-08-06T05:46:22;19.40;70.70
38223;DHT22;24024;51.186;6.458;2023-08-06T05:48:50;19.50;70.30
38223;DHT22;24024;51.186;6.458;2023-08-06T05:51:17;19.30;71.10
38223;DHT22;24024;51.186;6.458;2023-08-06T05:53:44;19.10;71.60
38223;DHT22;24024;51.186;6.458;2023-08-06T05:56:15;19.40;71.20
38223;DHT22;24024;51.186;6.458;2023-08-06T05:58:42;19.70;70.20
38223;DHT22;24024;51.186;6.458;2023-08-06T06:01:09;20.00;69.50
38223;DHT22;24024;51.186;6.458;2023-08-06T06:03:36;20.00;69.40
38223;DHT22;24024;51.186;6.458;2023-08-06T06:06:03;20.00;69.40
38223;DHT22;24024;51.186;6.458;2023-08-06T06:08:32;20.10;69.30
38223;DHT22;24024;51.186;6.458;2023-08-06T06:11:01;20.10;69.60
38223;DHT22;24024;51.186;6.458;2023-08-06T06:13:27;19.70;70.90
38223;DHT22;24024;51.186;6.458;2023-08-06T06:15:59;19.80;70.90
38223;DHT22;24024;51.186;6.458;2023-08-06T06:18:26;19.60;70.90
38223;DHT22;24024;51.186;6.458;2023-08-06T06:20:55;19.60;71.00
38223;DHT22;24024;51.186;6.458;2023-08-06T06:23:22;19.60;71.30
38223;DHT22;24024;51.186;6.458;2023-08-06T06:25:51;19.80;70.40
38223;DHT22;24024;51.186;6.458;2023-08-06T06:28:25;20.10;69.50
38223;DHT22;24024;51.186;6.458;2023-08-06T06:30:52;20.20;69.10
38223;DHT22;24024;51.186;6.458;2023-08-06T06:33:23;20.30;69.20
38223;DHT22;24024;51.186;6.458;2023-08-06T06:35:50;20.00;70.40
38223;DHT22;24024;51.186;6.458;2023-08-06T06:38:18;20.00;70.50
38223;DHT22;24024;51.186;6.458;2023-08-06T06:40:56;19.80;71.50
38223;DHT22;24024;51.186;6.458;2023-08-06T06:43:26;19.90;71.20
38223;DHT22;24024;51.186;6.458;2023-08-06T06:45:57;20.10;70.70
38223;DHT22;24024;51.186;6.458;2023-08-06T06:48:32;19.80;71.60
38223;DHT22;24024;51.186;6.458;2023-08-06T06:50:59;19.90;71.60
38223;DHT22;24024;51.186;6.458;2023-08-06T06:53:29;20.00;71.20
38223;DHT22;24024;51.186;6.458;2023-08-06T06:56:04;19.80;71.60
38223;DHT22;24024;51.186;6.458;2023-08-06T06:58:32;19.60;72.20
38223;DHT22;24024;51.186;6.458;2023-08-06T07:01:01;19.40;73.10
38223;DHT22;24024;51.186;6.458;2023-08-06T07:03:30;19.50;73.30
38223;DHT22;24024;51.186;6.458;2023-08-06T07:05:58;19.40;73.30
38223;DHT22;24024;51.186;6.458;2023-08-06T07:08:30;19.60;72.80
38223;DHT22;24024;51.186;6.458;2023-08-06T07:11:05;19.60;72.70
38223;DHT22;24024;51.186;6.458;2023-08-06T07:13:34;19.50;73.50
38223;DHT22;24024;51.186;6.458;2023-08-06T07:16:01;19.50;73.80
38223;DHT22;24024;51.186;6.458;2023-08-06T07:18:28;19.60;73.00
38223;DHT22;24024;51.186;6.458;2023-08-06T07:20:56;19.60;73.40
38223;DHT22;24024;51.186;6.458;2023-08-06T07:23:25;19.90;72.20
38223;DHT22;24024;51.186;6.458;2023-08-06T07:25:54;20.20;70.20
38223;DHT22;24024;51.186;6.458;2023-08-06T07:28:21;20.40;69.30
38223;DHT22;24024;51.186;6.458;2023-08-06T07:30:49;20.50;68.70
38223;DHT22;24024;51.186;6.458;2023-08-06T07:33:17;20.50;68.20
38223;DHT22;24024;51.186;6.458;2023-08-06T07:35:44;20.50;68.30
38223;DHT22;24024;51.186;6.458;2023-08-06T07:38:11;20.50;68.30
38223;DHT22;24024;51.186;6.458;2023-08-06T07:40:39;20.50;68.20
38223;DHT22;24024;51.186;6.458;2023-08-06T07:43:11;20.50;68.50
38223;DHT22;24024;51.186;6.458;2023-08-06T07:45:40;20.30;68.60
38223;DHT22;24024;51.186;6.458;2023-08-06T07:48:06;20.20;69.20
38223;DHT22;24024;51.186;6.458;2023-08-06T07:50:36;20.30;68.70
38223;DHT22;24024;51.186;6.458;2023-08-06T07:53:03;20.40;68.30
38223;DHT22;24024;51.186;6.458;2023-08-06T07:55:30;20.50;68.00
38223;DHT22;24024;51.186;6.458;2023-08-06T07:57:56;20.50;67.90
38223;DHT22;24024;51.186;6.458;2023-08-06T08:00:25;20.50;68.10
38223;DHT22;24024;51.186;6.458;2023-08-06T08:02:54;20.20;69.40
38223;DHT22;24024;51.186;6.458;2023-08-06T08:05:21;19.80;70.00
38223;DHT22;24024;51.186;6.458;2023-08-06T08:07:48;19.80;70.40
38223;DHT22;24024;51.186;6.458;2023-08-06T08:10:15;19.90;70.40
38223;DHT22;24024;51.186;6.458;2023-08-06T08:12:44;20.00;70.40
38223;DHT22;24024;51.186;6.458;2023-08-06T08:15:16;20.00;70.70
38223;DHT22;24024;51.186;6.458;2023-08-06T08:17:45;20.00;71.30
38223;DHT22;24024;51.186;6.458;2023-08-06T08:20:16;19.90;71.00
38223;DHT22;24024;51.186;6.458;2023-08-06T08:22:42;20.10;71.20
38223;DHT22;24024;51.186;6.458;2023-08-06T08:25:12;19.90;71.90
38223;DHT22;24024;51.186;6.458;2023-08-06T08:27:43;20.00;71.70
38223;DHT22;24024;51.186;6.458;2023-08-06T08:30:10;19.80;71.70
38223;DHT22;24024;51.186;6.458;2023-08-06T08:32:37;19.80;71.30
38223;DHT22;24024;51.186;6.458;2023-08-06T08:35:06;19.70;71.50
38223;DHT22;24024;51.186;6.458;2023-08-06T08:37:35;19.60;72.40
38223;DHT22;24024;51.186;6.458;2023-08-06T08:40:03;19.60;72.50
38223;DHT22;24024;51.186;6.458;2023-08-06T08:42:30;19.60;72.30
38223;DHT22;24024;51.186;6.458;2023-08-06T08:44:57;19.60;72.30
38223;DHT22;24024;51.186;6.458;2023-08-06T08:47:26;19.20;73.00
38223;DHT22;24024;51.186;6.458;2023-08-06T08:49:54;19.10;73.10
38223;DHT22;24024;51.186;6.458;2023-08-06T08:52:25;18.90;73.90
38223;DHT22;24024;51.186;6.458;2023-08-06T08:54:54;18.60;75.20
38223;DHT22;24024;51.186;6.458;2023-08-06T08:57:21;18.60;75.70
38223;DHT22;24024;51.186;6.458;2023-08-06T08:59:53;18.70;75.80
38223;DHT22;24024;51.186;6.458;2023-08-06T09:02:21;18.80;75.90
38223;DHT22;24024;51.186;6.458;2023-08-06T09:04:50;18.70;76.10
38223;DHT22;24024;51.186;6.458;2023-08-06T09:07:18;18.60;75.90
38223;DHT22;24024;51.186;6.458;2023-08-06T09:09:49;18.50;76.80
38223;DHT22;24024;51.186;6.458;2023-08-06T09:12:16;18.40;77.20
38223;DHT22;24024;51.186;6.458;2023-08-06T09:14:43;18.10;77.40
38223;DHT22;24024;51.186;6.458;2023-08-06T09:17:10;18.10;77.60
38223;DHT22;24024;51.186;6.458;2023-08-06T09:19:37;18.20;77.30
38223;DHT22;24024;51.186;6.458;2023-08-06T09:22:05;18.50;76.90
38223;DHT22;24024;51.186;6.458;2023-08-06T09:24:41;18.50;76.90
38223;DHT22;24024;51.186;6.458;2023-08-06T09:27:13;18.40;76.90
38223;DHT22;24024;51.186;6.458;2023-08-06T09:29:43;18.50;76.70
38223;DHT22;24024;51.186;6.458;2023-08-06T09:32:13;18.50;76.70
38223;DHT22;24024;51.186;6.458;2023-08-06T09:34:42;18.30;77.20
38223;DHT22;24024;51.186;6.458;2023-08-06T09:37:14;18.40;77.20
38223;DHT22;24024;51.186;6.458;2023-08-06T09:39:55;18.50;76.90
38223;DHT22;24024;51.186;6.458;2023-08-06T09:45:06;18.20;77.60
38223;DHT22;24024;51.186;6.458;2023-08-06T09:47:36;17.90;78.20
38223;DHT22;24024;51.186;6.458;2023-08-06T09:50:02;17.60;78.10
38223;DHT22;24024;51.186;6.458;2023-08-06T09:52:29;17.60;78.30
38223;DHT22;24024;51.186;6.458;2023-08-06T09:54:55;17.30;78.60
38223;DHT22;24024;51.186;6.458;2023-08-06T09:57:24;17.30;79.40
38223;DHT22;24024;51.186;6.458;2023-08-06T09:59:53;17.30;78.60
38223;DHT22;24024;51.186;6.458;2023-08-06T10:02:25;17.20;78.80
38223;DHT22;24024;51.186;6.458;2023-08-06T10:05:15;17.20;79.30
38223;DHT22;24024;51.186;6.458;2023-08-06T10:07:44;17.30;78.90
38223;DHT22;24024;51.186;6.458;2023-08-06T10:10:12;17.20;78.60
38223;DHT22;24024;51.186;6.458;2023-08-06T10:12:47;17.20;78.40
38223;DHT22;24024;51.186;6.458;2023-08-06T10:15:16;17.10;78.30
38223;DHT22;24024;51.186;6.458;2023-08-06T10:17:44;17.10;79.20
38223;DHT22;24024;51.186;6.458;2023-08-06T10:20:17;17.00;79.50
38223;DHT22;24024;51.186;6.458;2023-08-06T10:23:03;17.10;79.50
38223;DHT22;24024;51.186;6.458;2023-08-06T10:25:39;17.10;79.30
38223;DHT22;24024;51.186;6.458;2023-08-06T10:28:24;16.90;79.90
38223;DHT22;24024;51.186;6.458;2023-08-06T10:30:59;16.90;80.30
38223;DHT22;24024;51.186;6.458;2023-08-06T10:33:43;17.10;80.20
38223;DHT22;24024;51.186;6.458;2023-08-06T10:36:10;16.80;80.10
38223;DHT22;24024;51.186;6.458;2023-08-06T10:38:50;16.70;80.30
38223;DHT22;24024;51.186;6.458;2023-08-06T10:41:23;16.70;80.20
38223;DHT22;24024;51.186;6.458;2023-08-06T10:46:22;16.60;80.30
38223;DHT22;24024;51.186;6.458;2023-08-06T10:48:49;16.60;80.60
38223;DHT22;24024;51.186;6.458;2023-08-06T10:51:17;16.60;81.00
38223;DHT22;24024;51.186;6.458;2023-08-06T10:53:47;16.70;81.10
38223;DHT22;24024;51.186;6.458;2023-08-06T10:56:19;16.60;80.90
38223;DHT22;24024;51.186;6.458;2023-08-06T10:58:51;16.50;81.00
38223;DHT22;24024;51.186;6.458;2023-08-06T11:01:18;16.60;81.10
38223;DHT22;24024;51.186;6.458;2023-08-06T11:03:46;16.50;81.10
38223;DHT22;24024;51.186;6.458;2023-08-06T11:06:21;16.50;81.00
38223;DHT22;24024;51.186;6.458;2023-08-06T11:08:52;16.40;81.80
38223;DHT22;24024;51.186;6.458;2023-08-06T11:11:21;16.40;81.90
38223;DHT22;24024;51.186;6.458;2023-08-06T11:13:50;16.50;81.30
38223;DHT22;24024;51.186;6.458;2023-08-06T11:16:24;16.40;81.00
38223;DHT22;24024;51.186;6.458;2023-08-06T11:18:51;16.50;81.00
38223;DHT22;24024;51.186;6.458;2023-08-06T11:21:23;16.60;80.70
38223;DHT22;24024;51.186;6.458;2023-08-06T11:23:52;16.60;80.20
38223;DHT22;24024;51.186;6.458;2023-08-06T11:26:22;16.60;79.80
38223;DHT22;24024;51.186;6.458;2023-08-06T11:28:50;16.60;79.30
38223;DHT22;24024;51.186;6.458;2023-08-06T11:31:23;16.40;79.70
38223;DHT22;24024;51.186;6.458;2023-08-06T11:33:51;16.60;79.50
38223;DHT22;24024;51.186;6.458;2023-08-06T11:36:29;16.60;79.70
38223;DHT22;24024;51.186;6.458;2023-08-06T11:38:58;16.70;79.00
38223;DHT22;24024;51.186;6.458;2023-08-06T11:41:25;16.60;79.10
38223;DHT22;24024;51.186;6.458;2023-08-06T11:43:51;16.70;79.60
38223;DHT22;24024;51.186;6.458;2023-08-06T11:46:18;16.80;79.00
38223;DHT22;24024;51.186;6.458;2023-08-06T11:48:55;16.70;78.50
38223;DHT22;24024;51.186;6.458;2023-08-06T11:51:26;16.70;78.60
38223;DHT22;24024;51.186;6.458;2023-08-06T11:53:57;16.90;78.70
38223;DHT22;24024;51.186;6.458;2023-08-06T11:56:24;16.80;78.20
38223;DHT22;24024;51.186;6.458;2023-08-06T11:58:52;16.90;78.20
38223;DHT22;24024;51.186;6.458;2023-08-06T12:01:23;17.10;78.10
38223;DHT22;24024;51.186;6.458;2023-08-06T12:03:50;17.10;77.20
38223;DHT22;24024;51.186;6.458;2023-08-06T12:06:19;17.10;77.80
38223;DHT22;24024;51.186;6.458;2023-08-06T12:08:55;17.10;77.50
38223;DHT22;24024;51.186;6.458;2023-08-06T12:11:25;17.10;77.00
38223;DHT22;24024;51.186;6.458;2023-08-06T12:13:56;17.00;77.20
38223;DHT22;24024;51.186;6.458;2023-08-06T12:16:23;16.90;77.90
38223;DHT22;24024;51.186;6.458;2023-08-06T12:18:53;17.10;77.20
38223;DHT22;24024;51.186;6.458;2023-08-06T12:21:19;17.00;77.10
38223;DHT22;24024;51.186;6.458;2023-08-06T12:23:46;17.10;77.40
38223;DHT22;24024;51.186;6.458;2023-08-06T12:26:15;17.10;76.60
38223;DHT22;24024;51.186;6.458;2023-08-06T12:28:42;17.10;77.00
38223;DHT22;24024;51.186;6.458;2023-08-06T12:31:09;17.30;77.20
38223;DHT22;24024;51.186;6.458;2023-08-06T12:33:36;17.20;76.90
38223;DHT22;24024;51.186;6.458;2023-08-06T12:36:05;17.20;76.60
38223;DHT22;24024;51.186;6.458;2023-08-06T12:38:37;17.10;76.60
38223;DHT22;24024;51.186;6.458;2023-08-06T12:41:03;17.10;76.20
38223;DHT22;24024;51.186;6.458;2023-08-06T12:43:30;17.10;76.30
38223;DHT22;24024;51.186;6.458;2023-08-06T12:45:57;17.20;76.50
38223;DHT22;24024;51.186;6.458;2023-08-06T12:48:23;17.10;76.20
38223;DHT22;24024;51.186;6.458;2023-08-06T12:50:50;17.20;76.20
38223;DHT22;24024;51.186;6.458;2023-08-06T12:53:19;17.30;76.30
38223;DHT22;24024;51.186;6.458;2023-08-06T12:55:48;17.30;76.10
38223;DHT22;24024;51.186;6.458;2023-08-06T12:58:18;17.30;75.80
38223;DHT22;24024;51.186;6.458;2023-08-06T13:00:50;17.30;75.90
38223;DHT22;24024;51.186;6.458;2023-08-06T13:03:19;17.30;76.20
38223;DHT22;24024;51.186;6.458;2023-08-06T13:05:45;17.20;75.80
38223;DHT22;24024;51.186;6.458;2023-08-06T13:08:14;17.20;76.60
38223;DHT22;24024;51.186;6.458;2023-08-06T13:10:41;17.10;76.80
38223;DHT22;24024;51.186;6.458;2023-08-06T13:13:08;17.10;77.20
38223;DHT22;24024;51.186;6.458;2023-08-06T13:15:38;17.20;77.40
38223;DHT22;24024;51.186;6.458;2023-08-06T13:18:09;17.20;77.40
38223;DHT22;24024;51.186;6.458;2023-08-06T13:20:40;17.20;77.30
38223;DHT22;24024;51.186;6.458;2023-08-06T13:23:07;17.30;77.40
38223;DHT22;24024;51.186;6.458;2023-08-06T13:25:34;17.40;77.60
38223;DHT22;24024;51.186;6.458;2023-08-06T13:28:03;17.50;77.30
38223;DHT22;24024;51.186;6.458;2023-08-06T13:30:30;17.50;76.90
38223;DHT22;24024;51.186;6.458;2023-08-06T13:32:57;17.60;77.20
38223;DHT22;24024;51.186;6.458;2023-08-06T13:35:27;17.70;76.60
38223;DHT22;24024;51.186;6.458;2023-08-06T13:37:56;17.80;76.50
38223;DHT22;24024;51.186;6.458;2023-08-06T13:40:23;17.60;75.90
38223;DHT22;24024;51.186;6.458;2023-08-06T13:42:50;17.70;76.20
38223;DHT22;24024;51.186;6.458;2023-08-06T13:45:17;17.80;75.40
38223;DHT22;24024;51.186;6.458;2023-08-06T13:47:46;17.90;75.60
38223;DHT22;24024;51.186;6.458;2023-08-06T13:50:13;17.90;75.70
38223;DHT22;24024;51.186;6.458;2023-08-06T13:52:40;18.00;74.60
38223;DHT22;24024;51.186;6.458;2023-08-06T13:55:07;18.10;74.40
38223;DHT22;24024;51.186;6.458;2023-08-06T13:57:39;18.00;74.00
38223;DHT22;24024;51.186;6.458;2023-08-06T14:00:12;18.10;73.60
38223;DHT22;24024;51.186;6.458;2023-08-06T14:02:42;18.10;73.60
38223;DHT22;24024;51.186;6.458;2023-08-06T14:05:13;18.30;74.20
38223;DHT22;24024;51.186;6.458;2023-08-06T14:07:40;18.30;75.10
38223;DHT22;24024;51.186;6.458;2023-08-06T14:10:11;18.10;76.30
38223;DHT22;24024;51.186;6.458;2023-08-06T14:12:41;18.00;76.70
38223;DHT22;24024;51.186;6.458;2023-08-06T14:15:15;18.00;76.60
38223;DHT22;24024;51.186;6.458;2023-08-06T14:17:42;17.70;77.50
38223;DHT22;24024;51.186;6.458;2023-08-06T14:20:09;17.60;78.30
38223;DHT22;24024;51.186;6.458;2023-08-06T14:22:38;17.60;78.00
38223;DHT22;24024;51.186;6.458;2023-08-06T14:25:06;17.60;78.40
38223;DHT22;24024;51.186;6.458;2023-08-06T14:27:35;17.60;78.30
38223;DHT22;24024;51.186;6.458;2023-08-06T14:30:03;17.70;78.20
38223;DHT22;24024;51.186;6.458;2023-08-06T14:32:29;17.70;78.20
38223;DHT22;24024;51.186;6.458;2023-08-06T14:34:59;17.60;78.30
38223;DHT22;24024;51.186;6.458;2023-08-06T14:37:26;17.60;78.50
38223;DHT22;24024;51.186;6.458;2023-08-06T14:39:52;17.50;78.60
38223;DHT22;24024;51.186;6.458;2023-08-06T14:42:19;17.40;78.50
38223;DHT22;24024;51.186;6.458;2023-08-06T14:44:46;17.60;78.60
38223;DHT22;24024;51.186;6.458;2023-08-06T14:47:13;17.60;78.70
38223;DHT22;24024;51.186;6.458;2023-08-06T14:49:42;17.70;78.50
38223;DHT22;24024;51.186;6.458;2023-08-06T14:52:09;17.80;78.60
38223;DHT22;24024;51.186;6.458;2023-08-06T14:54:39;17.70;78.70
38223;DHT22;24024;51.186;6.458;2023-08-06T14:57:08;17.70;78.50
38223;DHT22;24024;51.186;6.458;2023-08-06T14:59:36;17.60;78.60
38223;DHT22;24024;51.186;6.458;2023-08-06T15:02:02;17.70;78.80
38223;DHT22;24024;51.186;6.458;2023-08-06T15:04:32;17.90;78.70
38223;DHT22;24024;51.186;6.458;2023-08-06T15:06:58;17.80;78.70
38223;DHT22;24024;51.186;6.458;2023-08-06T15:09:28;17.80;79.10
38223;DHT22;24024;51.186;6.458;2023-08-06T15:11:55;17.70;79.30
38223;DHT22;24024;51.186;6.458;2023-08-06T15:14:22;17.80;79.10
38223;DHT22;24024;51.186;6.458;2023-08-06T15:16:49;17.80;79.00
38223;DHT22;24024;51.186;6.458;2023-08-06T15:19:20;17.80;78.90
38223;DHT22;24024;51.186;6.458;2023-08-06T15:21:46;17.90;78.50
38223;DHT22;24024;51.186;6.458;2023-08-06T15:24:13;18.00;78.50
38223;DHT22;24024;51.186;6.458;2023-08-06T15:26:42;18.00;77.90
38223;DHT22;24024;51.186;6.458;2023-08-06T15:29:11;18.10;77.60
38223;DHT22;24024;51.186;6.458;2023-08-06T15:31:40;17.80;78.10
38223;DHT22;24024;51.186;6.458;2023-08-06T15:34:07;17.80;78.50
38223;DHT22;24024;51.186;6.458;2023-08-06T15:36:34;17.90;78.50
38223;DHT22;24024;51.186;6.458;2023-08-06T15:39:06;17.80;78.80
38223;DHT22;24024;51.186;6.458;2023-08-06T15:41:33;17.60;78.40
38223;DHT22;24024;51.186;6.458;2023-08-06T15:43:59;17.60;78.80
38223;DHT22;24024;51.186;6.458;2023-08-06T15:46:28;17.60;79.40
38223;DHT22;24024;51.186;6.458;2023-08-06T15:48:55;17.50;79.30
38223;DHT22;24024;51.186;6.458;2023-08-06T15:51:22;17.50;79.60
38223;DHT22;24024;51.186;6.458;2023-08-06T15:53:48;17.60;79.30
38223;DHT22;24024;51.186;6.458;2023-08-06T15:56:15;17.60;78.80
38223;DHT22;24024;51.186;6.458;2023-08-06T15:58:45;17.40;78.90